sensor_id;sensor_type;location;lat;lon;timestamp;P1;durP1;ratioP1;P2;durP2;ratioP2
77769;SDS011;66961;51.482;9.160;2023-08-07T00:01:54;3.50;;;1.45;;
77769;SDS011;66961;51.482;9.160;2023-08-07T00:04:19;3.30;;;1.37;;
77769;SDS011;66961;51.482;9.160;2023-08-07T00:06:45;5.97;;;2.10;;
77769;SDS011;66961;51.482;9.160;2023-08-07T00:09:10;4.13;;;1.63;;
77769;SDS011;66961;51.482;9.160;2023-08-07T00:11:35;5.63;;;1.90;;
77769;SDS011;66961;51.482;9.160;2023-08-07T00:14:00;2.87;;;1.90;;
77769;SDS011;66961;51.482;9.160;2023-08-07T00:16:26;4.13;;;2.42;;
77769;SDS011;66961;51.482;9.160;2023-08-07T00:18:51;4.50;;;2.90;;
77769;SDS011;66961;51.482;9.160;2023-08-07T00:21:16;3.43;;;2.30;;
77769;SDS011;66961;51.482;9.160;2023-08-07T00:23:42;3.37;;;2.50;;
77769;SDS011;66961;51.482;9.160;2023-08-07T00:26:07;4.70;;;2.63;;
77769;SDS011;66961;51.482;9.160;2023-08-07T00:28:32;5.23;;;2.87;;
77769;SDS011;66961;51.482;9.160;2023-08-07T00:30:57;3.87;;;2.53;;
77769;SDS011;66961;51.482;9.160;2023-08-07T00:33:23;6.33;;;2.87;;
77769;SDS011;66961;51.482;9.160;2023-08-07T00:35:48;3.90;;;2.33;;
77769;SDS011;66961;51.482;9.160;2023-08-07T00:38:13;5.73;;;2.60;;
77769;SDS011;66961;51.482;9.160;2023-08-07T00:40:39;4.03;;;2.53;;
77769;SDS011;66961;51.482;9.160;2023-08-07T00:43:05;6.38;;;2.40;;
77769;SDS011;66961;51.482;9.160;2023-08-07T00:45:35;3.15;;;2.03;;
77769;SDS011;66961;51.482;9.160;2023-08-07T00:48:05;3.63;;;2.00;;
77769;SDS011;66961;51.482;9.160;2023-08-07T00:50:30;4.25;;;1.80;;
77769;SDS011;66961;51.482;9.160;2023-08-07T00:52:56;3.07;;;1.90;;
77769;SDS011;66961;51.482;9.160;2023-08-07T00:55:21;4.45;;;1.70;;
77769;SDS011;66961;51.482;9.160;2023-08-07T00:57:47;4.10;;;1.73;;
77769;SDS011;66961;51.482;9.160;2023-08-07T01:00:13;4.65;;;1.88;;
77769;SDS011;66961;51.482;9.160;2023-08-07T01:02:40;2.97;;;1.80;;
77769;SDS011;66961;51.482;9.160;2023-08-07T01:05:05;2.97;;;1.80;;
77769;SDS011;66961;51.482;9.160;2023-08-07T01:07:31;2.38;;;1.40;;
77769;SDS011;66961;51.482;9.160;2023-08-07T01:09:56;2.87;;;1.87;;
77769;SDS011;66961;51.482;9.160;2023-08-07T01:12:23;2.72;;;1.70;;
77769;SDS011;66961;51.482;9.160;2023-08-07T01:17:39;3.05;;;1.10;;
77769;SDS011;66961;51.482;9.160;2023-08-07T01:20:07;2.13;;;0.93;;
77769;SDS011;66961;51.482;9.160;2023-08-07T01:22:33;1.98;;;0.90;;
77769;SDS011;66961;51.482;9.160;2023-08-07T01:24:58;2.00;;;1.10;;
77769;SDS011;66961;51.482;9.160;2023-08-07T01:27:36;1.90;;;1.00;;
77769;SDS011;66961;51.482;9.160;2023-08-07T01:30:19;1.92;;;0.80;;
77769;SDS011;66961;51.482;9.160;2023-08-07T01:35:20;4.00;;;1.20;;
77769;SDS011;66961;51.482;9.160;2023-08-07T01:37:47;1.88;;;0.82;;
77769;SDS011;66961;51.482;9.160;2023-08-07T01:40:14;1.77;;;0.70;;
77769;SDS011;66961;51.482;9.160;2023-08-07T01:42:41;1.70;;;0.95;;
77769;SDS011;66961;51.482;9.160;2023-08-07T01:45:08;1.40;;;0.65;;
77769;SDS011;66961;51.482;9.160;2023-08-07T01:47:33;2.85;;;0.93;;
77769;SDS011;66961;51.482;9.160;2023-08-07T01:49:59;2.00;;;1.00;;
77769;SDS011;66961;51.482;9.160;2023-08-07T01:52:24;2.37;;;1.20;;
77769;SDS011;66961;51.482;9.160;2023-08-07T01:54:50;2.60;;;1.25;;
77769;SDS011;66961;51.482;9.160;2023-08-07T01:57:15;2.00;;;0.83;;
77769;SDS011;66961;51.482;9.160;2023-08-07T01:59:40;2.47;;;1.20;;
77769;SDS011;66961;51.482;9.160;2023-08-07T02:02:05;2.67;;;1.90;;
77769;SDS011;66961;51.482;9.160;2023-08-07T02:04:31;3.57;;;1.83;;
77769;SDS011;66961;51.482;9.160;2023-08-07T02:06:56;2.00;;;1.70;;
77769;SDS011;66961;51.482;9.160;2023-08-07T02:09:21;5.03;;;2.10;;
77769;SDS011;66961;51.482;9.160;2023-08-07T02:11:47;3.90;;;2.05;;
77769;SDS011;66961;51.482;9.160;2023-08-07T02:14:12;2.78;;;1.40;;
77769;SDS011;66961;51.482;9.160;2023-08-07T02:16:37;5.63;;;1.60;;
77769;SDS011;66961;51.482;9.160;2023-08-07T02:19:03;3.30;;;1.47;;
77769;SDS011;66961;51.482;9.160;2023-08-07T02:21:28;2.17;;;1.80;;
77769;SDS011;66961;51.482;9.160;2023-08-07T02:23:53;3.27;;;2.17;;
77769;SDS011;66961;51.482;9.160;2023-08-07T02:26:18;3.87;;;1.80;;
77769;SDS011;66961;51.482;9.160;2023-08-07T02:28:44;2.10;;;1.80;;
77769;SDS011;66961;51.482;9.160;2023-08-07T02:31:09;2.50;;;1.90;;
77769;SDS011;66961;51.482;9.160;2023-08-07T02:33:34;4.27;;;2.00;;
77769;SDS011;66961;51.482;9.160;2023-08-07T02:35:59;5.53;;;2.47;;
77769;SDS011;66961;51.482;9.160;2023-08-07T02:38:25;3.27;;;2.40;;
77769;SDS011;66961;51.482;9.160;2023-08-07T02:40:50;2.90;;;1.80;;
77769;SDS011;66961;51.482;9.160;2023-08-07T02:43:15;3.13;;;1.70;;
77769;SDS011;66961;51.482;9.160;2023-08-07T02:45:41;4.53;;;1.93;;
77769;SDS011;66961;51.482;9.160;2023-08-07T02:48:06;3.13;;;2.03;;
77769;SDS011;66961;51.482;9.160;2023-08-07T02:50:31;2.27;;;1.60;;
77769;SDS011;66961;51.482;9.160;2023-08-07T02:52:56;4.33;;;1.90;;
77769;SDS011;66961;51.482;9.160;2023-08-07T02:55:22;4.50;;;1.90;;
77769;SDS011;66961;51.482;9.160;2023-08-07T02:57:47;2.43;;;1.77;;
77769;SDS011;66961;51.482;9.160;2023-08-07T03:00:12;2.40;;;1.80;;
77769;SDS011;66961;51.482;9.160;2023-08-07T03:02:38;2.55;;;1.63;;
77769;SDS011;66961;51.482;9.160;2023-08-07T03:05:03;2.93;;;1.50;;
77769;SDS011;66961;51.482;9.160;2023-08-07T03:07:29;5.88;;;1.88;;
77769;SDS011;66961;51.482;9.160;2023-08-07T03:09:54;3.03;;;1.60;;
77769;SDS011;66961;51.482;9.160;2023-08-07T03:12:19;3.53;;;1.63;;
77769;SDS011;66961;51.482;9.160;2023-08-07T03:14:44;5.37;;;2.03;;
77769;SDS011;66961;51.482;9.160;2023-08-07T03:17:10;3.23;;;1.60;;
77769;SDS011;66961;51.482;9.160;2023-08-07T03:19:35;2.70;;;1.80;;
77769;SDS011;66961;51.482;9.160;2023-08-07T03:22:00;6.00;;;2.37;;
77769;SDS011;66961;51.482;9.160;2023-08-07T03:24:26;3.50;;;1.75;;
77769;SDS011;66961;51.482;9.160;2023-08-07T03:26:51;4.20;;;2.60;;
77769;SDS011;66961;51.482;9.160;2023-08-07T03:29:16;4.60;;;2.30;;
77769;SDS011;66961;51.482;9.160;2023-08-07T03:31:42;2.90;;;1.90;;
77769;SDS011;66961;51.482;9.160;2023-08-07T03:34:07;3.57;;;1.90;;
77769;SDS011;66961;51.482;9.160;2023-08-07T03:36:32;3.63;;;2.07;;
77769;SDS011;66961;51.482;9.160;2023-08-07T03:38:57;3.60;;;2.00;;
77769;SDS011;66961;51.482;9.160;2023-08-07T03:41:23;4.10;;;1.80;;
77769;SDS011;66961;51.482;9.160;2023-08-07T03:43:48;3.92;;;1.90;;
77769;SDS011;66961;51.482;9.160;2023-08-07T03:46:13;5.07;;;2.13;;
77769;SDS011;66961;51.482;9.160;2023-08-07T03:48:39;4.53;;;2.30;;
77769;SDS011;66961;51.482;9.160;2023-08-07T03:51:04;6.60;;;2.60;;
77769;SDS011;66961;51.482;9.160;2023-08-07T03:53:30;5.63;;;2.00;;
77769;SDS011;66961;51.482;9.160;2023-08-07T03:55:56;4.13;;;2.63;;
77769;SDS011;66961;51.482;9.160;2023-08-07T03:58:21;6.50;;;2.57;;
77769;SDS011;66961;51.482;9.160;2023-08-07T04:00:46;5.23;;;3.30;;
77769;SDS011;66961;51.482;9.160;2023-08-07T04:03:12;5.33;;;3.50;;
77769;SDS011;66961;51.482;9.160;2023-08-07T04:05:37;5.77;;;3.27;;
77769;SDS011;66961;51.482;9.160;2023-08-07T04:08:02;6.07;;;3.37;;
77769;SDS011;66961;51.482;9.160;2023-08-07T04:10:27;5.30;;;3.63;;
77769;SDS011;66961;51.482;9.160;2023-08-07T04:12:53;5.17;;;3.80;;
77769;SDS011;66961;51.482;9.160;2023-08-07T04:15:18;7.40;;;3.80;;
77769;SDS011;66961;51.482;9.160;2023-08-07T04:17:43;9.87;;;4.33;;
77769;SDS011;66961;51.482;9.160;2023-08-07T04:20:08;8.47;;;4.30;;
77769;SDS011;66961;51.482;9.160;2023-08-07T04:22:34;7.60;;;4.07;;
77769;SDS011;66961;51.482;9.160;2023-08-07T04:24:59;9.13;;;4.13;;
77769;SDS011;66961;51.482;9.160;2023-08-07T04:27:24;9.87;;;4.10;;
77769;SDS011;66961;51.482;9.160;2023-08-07T04:29:50;8.13;;;3.87;;
77769;SDS011;66961;51.482;9.160;2023-08-07T04:32:15;5.47;;;3.27;;
77769;SDS011;66961;51.482;9.160;2023-08-07T04:34:40;6.57;;;3.10;;
77769;SDS011;66961;51.482;9.160;2023-08-07T04:37:05;8.83;;;3.50;;
77769;SDS011;66961;51.482;9.160;2023-08-07T04:39:31;4.90;;;2.60;;
77769;SDS011;66961;51.482;9.160;2023-08-07T04:41:56;2.47;;;1.50;;
77769;SDS011;66961;51.482;9.160;2023-08-07T04:44:22;3.70;;;1.50;;
77769;SDS011;66961;51.482;9.160;2023-08-07T04:46:47;2.23;;;1.10;;
77769;SDS011;66961;51.482;9.160;2023-08-07T04:49:12;2.00;;;1.00;;
77769;SDS011;66961;51.482;9.160;2023-08-07T04:51:37;0.77;;;0.20;;
77769;SDS011;66961;51.482;9.160;2023-08-07T04:54:03;0.70;;;0.33;;
77769;SDS011;66961;51.482;9.160;2023-08-07T04:56:28;0.40;;;0.30;;
77769;SDS011;66961;51.482;9.160;2023-08-07T04:58:53;1.02;;;0.20;;
77769;SDS011;66961;51.482;9.160;2023-08-07T05:01:19;0.30;;;0.10;;
77769;SDS011;66961;51.482;9.160;2023-08-07T05:03:44;0.37;;;0.10;;
77769;SDS011;66961;51.482;9.160;2023-08-07T05:06:09;0.40;;;0.07;;
77769;SDS011;66961;51.482;9.160;2023-08-07T05:08:34;0.50;;;0.20;;
77769;SDS011;66961;51.482;9.160;2023-08-07T05:11:00;1.50;;;0.50;;
77769;SDS011;66961;51.482;9.160;2023-08-07T05:13:25;0.33;;;0.20;;
77769;SDS011;66961;51.482;9.160;2023-08-07T05:15:50;0.67;;;0.40;;
77769;SDS011;66961;51.482;9.160;2023-08-07T05:18:15;2.30;;;0.30;;
77769;SDS011;66961;51.482;9.160;2023-08-07T05:20:41;0.80;;;0.63;;
77769;SDS011;66961;51.482;9.160;2023-08-07T05:23:06;2.03;;;0.68;;
77769;SDS011;66961;51.482;9.160;2023-08-07T05:25:32;3.80;;;1.55;;
77769;SDS011;66961;51.482;9.160;2023-08-07T05:27:57;1.80;;;1.13;;
77769;SDS011;66961;51.482;9.160;2023-08-07T05:30:22;2.17;;;1.53;;
77769;SDS011;66961;51.482;9.160;2023-08-07T05:32:48;2.53;;;1.98;;
77769;SDS011;66961;51.482;9.160;2023-08-07T05:35:13;4.20;;;1.90;;
77769;SDS011;66961;51.482;9.160;2023-08-07T05:37:38;2.90;;;2.37;;
77769;SDS011;66961;51.482;9.160;2023-08-07T05:40:04;4.60;;;2.25;;
77769;SDS011;66961;51.482;9.160;2023-08-07T05:42:30;4.28;;;2.03;;
77769;SDS011;66961;51.482;9.160;2023-08-07T05:44:56;3.80;;;2.50;;
77769;SDS011;66961;51.482;9.160;2023-08-07T05:47:21;3.17;;;1.87;;
77769;SDS011;66961;51.482;9.160;2023-08-07T05:49:46;2.80;;;1.80;;
77769;SDS011;66961;51.482;9.160;2023-08-07T05:52:11;2.93;;;1.73;;
77769;SDS011;66961;51.482;9.160;2023-08-07T05:54:37;2.83;;;1.30;;
77769;SDS011;66961;51.482;9.160;2023-08-07T05:57:02;2.88;;;1.40;;
77769;SDS011;66961;51.482;9.160;2023-08-07T05:59:28;2.55;;;1.20;;
77769;SDS011;66961;51.482;9.160;2023-08-07T06:01:53;1.95;;;0.88;;
77769;SDS011;66961;51.482;9.160;2023-08-07T06:04:18;0.80;;;0.70;;
77769;SDS011;66961;51.482;9.160;2023-08-07T06:06:46;2.05;;;0.70;;
77769;SDS011;66961;51.482;9.160;2023-08-07T06:09:11;0.83;;;0.30;;
77769;SDS011;66961;51.482;9.160;2023-08-07T06:11:36;0.57;;;0.20;;
77769;SDS011;66961;51.482;9.160;2023-08-07T06:14:02;0.60;;;0.40;;
77769;SDS011;66961;51.482;9.160;2023-08-07T06:16:27;0.70;;;0.20;;
77769;SDS011;66961;51.482;9.160;2023-08-07T06:18:52;0.60;;;0.33;;
77769;SDS011;66961;51.482;9.160;2023-08-07T06:21:18;0.35;;;0.22;;
77769;SDS011;66961;51.482;9.160;2023-08-07T06:23:43;1.05;;;0.40;;
77769;SDS011;66961;51.482;9.160;2023-08-07T06:26:09;1.13;;;0.70;;
77769;SDS011;66961;51.482;9.160;2023-08-07T06:28:34;0.77;;;0.67;;
77769;SDS011;66961;51.482;9.160;2023-08-07T06:31:01;1.08;;;0.73;;
77769;SDS011;66961;51.482;9.160;2023-08-07T06:33:30;1.17;;;0.52;;
77769;SDS011;66961;51.482;9.160;2023-08-07T06:35:55;1.42;;;0.50;;
77769;SDS011;66961;51.482;9.160;2023-08-07T06:38:21;1.88;;;0.40;;
77769;SDS011;66961;51.482;9.160;2023-08-07T06:40:47;0.98;;;0.40;;
77769;SDS011;66961;51.482;9.160;2023-08-07T06:43:12;1.10;;;0.30;;
77769;SDS011;66961;51.482;9.160;2023-08-07T06:45:37;2.10;;;1.30;;
77769;SDS011;66961;51.482;9.160;2023-08-07T06:48:02;0.80;;;0.33;;
77769;SDS011;66961;51.482;9.160;2023-08-07T06:50:28;0.30;;;0.20;;
77769;SDS011;66961;51.482;9.160;2023-08-07T06:52:53;1.80;;;0.30;;
77769;SDS011;66961;51.482;9.160;2023-08-07T06:55:18;0.23;;;0.10;;
77769;SDS011;66961;51.482;9.160;2023-08-07T06:57:43;0.27;;;0.10;;
77769;SDS011;66961;51.482;9.160;2023-08-07T07:00:09;0.30;;;0.20;;
77769;SDS011;66961;51.482;9.160;2023-08-07T07:02:34;0.50;;;0.25;;
77769;SDS011;66961;51.482;9.160;2023-08-07T07:05:00;0.30;;;0.20;;
77769;SDS011;66961;51.482;9.160;2023-08-07T07:07:25;0.27;;;0.13;;
77769;SDS011;66961;51.482;9.160;2023-08-07T07:09:50;1.00;;;0.10;;
77769;SDS011;66961;51.482;9.160;2023-08-07T07:12:16;0.40;;;0.20;;
77769;SDS011;66961;51.482;9.160;2023-08-07T07:14:41;0.10;;;0.03;;
77769;SDS011;66961;51.482;9.160;2023-08-07T07:17:06;0.20;;;0.10;;
77769;SDS011;66961;51.482;9.160;2023-08-07T07:19:31;0.53;;;0.20;;
77769;SDS011;66961;51.482;9.160;2023-08-07T07:21:57;0.50;;;0.30;;
77769;SDS011;66961;51.482;9.160;2023-08-07T07:24:22;1.13;;;0.30;;
77769;SDS011;66961;51.482;9.160;2023-08-07T07:26:47;1.23;;;0.30;;
77769;SDS011;66961;51.482;9.160;2023-08-07T07:29:12;5.00;;;0.53;;
77769;SDS011;66961;51.482;9.160;2023-08-07T07:31:38;2.33;;;0.50;;
77769;SDS011;66961;51.482;9.160;2023-08-07T07:34:03;0.50;;;0.30;;
77769;SDS011;66961;51.482;9.160;2023-08-07T07:36:28;0.83;;;0.50;;
77769;SDS011;66961;51.482;9.160;2023-08-07T07:38:54;1.17;;;0.50;;
77769;SDS011;66961;51.482;9.160;2023-08-07T07:41:19;0.88;;;0.38;;
77769;SDS011;66961;51.482;9.160;2023-08-07T07:43:44;2.30;;;0.40;;
77769;SDS011;66961;51.482;9.160;2023-08-07T07:46:11;1.00;;;0.40;;
77769;SDS011;66961;51.482;9.160;2023-08-07T07:48:36;0.60;;;0.40;;
77769;SDS011;66961;51.482;9.160;2023-08-07T07:51:02;0.70;;;0.40;;
77769;SDS011;66961;51.482;9.160;2023-08-07T07:53:28;0.50;;;0.40;;
77769;SDS011;66961;51.482;9.160;2023-08-07T07:55:53;0.73;;;0.40;;
77769;SDS011;66961;51.482;9.160;2023-08-07T07:58:19;0.52;;;0.30;;
77769;SDS011;66961;51.482;9.160;2023-08-07T08:00:45;1.15;;;0.60;;
77769;SDS011;66961;51.482;9.160;2023-08-07T08:03:10;0.75;;;0.60;;
77769;SDS011;66961;51.482;9.160;2023-08-07T08:05:36;0.87;;;0.60;;
77769;SDS011;66961;51.482;9.160;2023-08-07T08:08:01;0.70;;;0.50;;
77769;SDS011;66961;51.482;9.160;2023-08-07T08:10:26;1.00;;;0.60;;
77769;SDS011;66961;51.482;9.160;2023-08-07T08:12:54;1.73;;;0.63;;
77769;SDS011;66961;51.482;9.160;2023-08-07T08:15:20;0.77;;;0.60;;
77769;SDS011;66961;51.482;9.160;2023-08-07T08:17:45;1.05;;;0.80;;
77769;SDS011;66961;51.482;9.160;2023-08-07T08:20:11;1.63;;;0.77;;
77769;SDS011;66961;51.482;9.160;2023-08-07T08:22:36;0.60;;;0.50;;
77769;SDS011;66961;51.482;9.160;2023-08-07T08:25:01;1.85;;;0.70;;
77769;SDS011;66961;51.482;9.160;2023-08-07T08:27:27;0.88;;;0.60;;
77769;SDS011;66961;51.482;9.160;2023-08-07T08:29:52;0.93;;;0.73;;
77769;SDS011;66961;51.482;9.160;2023-08-07T08:32:17;2.93;;;1.10;;
77769;SDS011;66961;51.482;9.160;2023-08-07T08:34:42;1.97;;;1.10;;
77769;SDS011;66961;51.482;9.160;2023-08-07T08:37:08;2.00;;;1.30;;
77769;SDS011;66961;51.482;9.160;2023-08-07T08:39:33;3.00;;;1.80;;
77769;SDS011;66961;51.482;9.160;2023-08-07T08:41:58;1.97;;;1.60;;
77769;SDS011;66961;51.482;9.160;2023-08-07T08:44:24;3.65;;;1.52;;
77769;SDS011;66961;51.482;9.160;2023-08-07T08:46:54;1.95;;;1.75;;
77769;SDS011;66961;51.482;9.160;2023-08-07T08:49:25;3.30;;;1.90;;
77769;SDS011;66961;51.482;9.160;2023-08-07T08:51:57;3.30;;;2.20;;
77769;SDS011;66961;51.482;9.160;2023-08-07T08:54:23;3.55;;;2.20;;
77769;SDS011;66961;51.482;9.160;2023-08-07T08:56:48;2.70;;;2.00;;
77769;SDS011;66961;51.482;9.160;2023-08-07T08:59:15;2.80;;;2.00;;
77769;SDS011;66961;51.482;9.160;2023-08-07T09:01:40;2.25;;;1.65;;
77769;SDS011;66961;51.482;9.160;2023-08-07T09:04:05;3.75;;;2.00;;
77769;SDS011;66961;51.482;9.160;2023-08-07T09:06:31;3.67;;;2.15;;
77769;SDS011;66961;51.482;9.160;2023-08-07T09:08:57;3.38;;;1.80;;
77769;SDS011;66961;51.482;9.160;2023-08-07T09:11:23;2.40;;;1.80;;
77769;SDS011;66961;51.482;9.160;2023-08-07T09:13:49;2.95;;;1.80;;
77769;SDS011;66961;51.482;9.160;2023-08-07T09:16:14;3.25;;;1.98;;
77769;SDS011;66961;51.482;9.160;2023-08-07T09:18:40;3.75;;;1.92;;
77769;SDS011;66961;51.482;9.160;2023-08-07T09:21:06;3.40;;;1.92;;
77769;SDS011;66961;51.482;9.160;2023-08-07T09:23:31;3.67;;;1.70;;
77769;SDS011;66961;51.482;9.160;2023-08-07T09:26:00;3.87;;;1.80;;
77769;SDS011;66961;51.482;9.160;2023-08-07T09:28:29;4.25;;;1.90;;
77769;SDS011;66961;51.482;9.160;2023-08-07T09:30:54;2.90;;;1.85;;
77769;SDS011;66961;51.482;9.160;2023-08-07T09:33:26;3.95;;;2.13;;
77769;SDS011;66961;51.482;9.160;2023-08-07T09:35:53;4.30;;;2.00;;
77769;SDS011;66961;51.482;9.160;2023-08-07T09:38:23;4.53;;;1.77;;
77769;SDS011;66961;51.482;9.160;2023-08-07T09:40:48;2.77;;;1.80;;
77769;SDS011;66961;51.482;9.160;2023-08-07T09:43:20;3.42;;;1.70;;
77769;SDS011;66961;51.482;9.160;2023-08-07T09:45:46;2.50;;;1.80;;
77769;SDS011;66961;51.482;9.160;2023-08-07T09:48:11;4.75;;;1.92;;
77769;SDS011;66961;51.482;9.160;2023-08-07T09:50:37;7.30;;;1.80;;
77769;SDS011;66961;51.482;9.160;2023-08-07T09:53:02;4.77;;;1.90;;
77769;SDS011;66961;51.482;9.160;2023-08-07T09:55:27;5.65;;;2.05;;
77769;SDS011;66961;51.482;9.160;2023-08-07T09:57:53;5.60;;;2.25;;
77769;SDS011;66961;51.482;9.160;2023-08-07T10:00:19;4.32;;;2.00;;
77769;SDS011;66961;51.482;9.160;2023-08-07T10:02:45;5.85;;;2.17;;
77769;SDS011;66961;51.482;9.160;2023-08-07T10:05:11;5.60;;;2.17;;
77769;SDS011;66961;51.482;9.160;2023-08-07T10:07:37;5.65;;;2.60;;
77769;SDS011;66961;51.482;9.160;2023-08-07T10:10:02;5.70;;;2.20;;
77769;SDS011;66961;51.482;9.160;2023-08-07T10:12:28;6.35;;;2.60;;
77769;SDS011;66961;51.482;9.160;2023-08-07T10:14:54;4.07;;;2.35;;
77769;SDS011;66961;51.482;9.160;2023-08-07T10:17:21;5.25;;;2.42;;
77769;SDS011;66961;51.482;9.160;2023-08-07T10:19:46;4.03;;;2.20;;
77769;SDS011;66961;51.482;9.160;2023-08-07T10:22:12;4.53;;;2.42;;
77769;SDS011;66961;51.482;9.160;2023-08-07T10:24:39;5.35;;;2.47;;
77769;SDS011;66961;51.482;9.160;2023-08-07T10:27:07;3.13;;;1.85;;
77769;SDS011;66961;51.482;9.160;2023-08-07T10:29:33;3.75;;;1.40;;
77769;SDS011;66961;51.482;9.160;2023-08-07T10:32:01;3.17;;;1.80;;
77769;SDS011;66961;51.482;9.160;2023-08-07T10:34:32;2.90;;;1.75;;
77769;SDS011;66961;51.482;9.160;2023-08-07T10:36:58;3.20;;;1.40;;
77769;SDS011;66961;51.482;9.160;2023-08-07T10:39:24;6.10;;;1.50;;
77769;SDS011;66961;51.482;9.160;2023-08-07T10:41:52;3.28;;;1.33;;
77769;SDS011;66961;51.482;9.160;2023-08-07T10:44:22;3.38;;;1.50;;
77769;SDS011;66961;51.482;9.160;2023-08-07T10:46:54;3.65;;;1.30;;
77769;SDS011;66961;51.482;9.160;2023-08-07T10:52:02;7.43;;;1.30;;
77769;SDS011;66961;51.482;9.160;2023-08-07T10:54:29;3.13;;;0.93;;
77769;SDS011;66961;51.482;9.160;2023-08-07T10:56:54;4.30;;;1.33;;
77769;SDS011;66961;51.482;9.160;2023-08-07T10:59:20;3.78;;;1.10;;
77769;SDS011;66961;51.482;9.160;2023-08-07T11:01:50;4.55;;;1.48;;
77769;SDS011;66961;51.482;9.160;2023-08-07T11:04:16;3.47;;;1.58;;
77769;SDS011;66961;51.482;9.160;2023-08-07T11:06:42;6.05;;;1.83;;
77769;SDS011;66961;51.482;9.160;2023-08-07T11:09:11;6.82;;;1.88;;
77769;SDS011;66961;51.482;9.160;2023-08-07T11:14:15;6.50;;;1.95;;
77769;SDS011;66961;51.482;9.160;2023-08-07T11:16:41;4.82;;;1.67;;
77769;SDS011;66961;51.482;9.160;2023-08-07T11:19:07;7.22;;;2.45;;
77769;SDS011;66961;51.482;9.160;2023-08-07T11:21:33;6.32;;;2.35;;
77769;SDS011;66961;51.482;9.160;2023-08-07T11:23:59;8.25;;;2.20;;
77769;SDS011;66961;51.482;9.160;2023-08-07T11:26:25;6.13;;;1.85;;
77769;SDS011;66961;51.482;9.160;2023-08-07T11:28:50;4.80;;;2.00;;
77769;SDS011;66961;51.482;9.160;2023-08-07T11:31:16;4.93;;;1.90;;
77769;SDS011;66961;51.482;9.160;2023-08-07T11:33:45;2.53;;;1.33;;
77769;SDS011;66961;51.482;9.160;2023-08-07T11:36:11;4.03;;;1.73;;
77769;SDS011;66961;51.482;9.160;2023-08-07T11:38:38;4.82;;;2.10;;
77769;SDS011;66961;51.482;9.160;2023-08-07T11:41:07;3.22;;;1.50;;
77769;SDS011;66961;51.482;9.160;2023-08-07T11:43:33;4.18;;;1.65;;
77769;SDS011;66961;51.482;9.160;2023-08-07T11:46:03;3.60;;;1.70;;
77769;SDS011;66961;51.482;9.160;2023-08-07T11:48:30;7.25;;;1.73;;
77769;SDS011;66961;51.482;9.160;2023-08-07T11:50:57;6.68;;;2.20;;
77769;SDS011;66961;51.482;9.160;2023-08-07T11:53:27;7.38;;;1.83;;
77769;SDS011;66961;51.482;9.160;2023-08-07T11:55:55;4.85;;;1.80;;
77769;SDS011;66961;51.482;9.160;2023-08-07T11:58:24;5.28;;;1.70;;
77769;SDS011;66961;51.482;9.160;2023-08-07T12:00:50;4.93;;;1.58;;
77769;SDS011;66961;51.482;9.160;2023-08-07T12:03:25;5.07;;;1.85;;
77769;SDS011;66961;51.482;9.160;2023-08-07T12:05:55;6.82;;;2.28;;
77769;SDS011;66961;51.482;9.160;2023-08-07T12:08:22;6.38;;;2.15;;
77769;SDS011;66961;51.482;9.160;2023-08-07T12:10:53;4.88;;;1.92;;
77769;SDS011;66961;51.482;9.160;2023-08-07T12:13:26;5.45;;;2.20;;
77769;SDS011;66961;51.482;9.160;2023-08-07T12:15:52;6.05;;;2.00;;
77769;SDS011;66961;51.482;9.160;2023-08-07T12:18:19;5.00;;;1.98;;
77769;SDS011;66961;51.482;9.160;2023-08-07T12:20:44;8.13;;;1.90;;
77769;SDS011;66961;51.482;9.160;2023-08-07T12:23:16;6.25;;;2.33;;
77769;SDS011;66961;51.482;9.160;2023-08-07T12:25:42;5.38;;;1.92;;
77769;SDS011;66961;51.482;9.160;2023-08-07T12:28:08;7.63;;;1.60;;
77769;SDS011;66961;51.482;9.160;2023-08-07T12:30:36;7.20;;;2.08;;
77769;SDS011;66961;51.482;9.160;2023-08-07T12:33:02;13.13;;;2.35;;
77769;SDS011;66961;51.482;9.160;2023-08-07T12:35:27;6.28;;;1.60;;
77769;SDS011;66961;51.482;9.160;2023-08-07T12:37:53;5.85;;;2.30;;
77769;SDS011;66961;51.482;9.160;2023-08-07T12:40:18;4.77;;;1.73;;
77769;SDS011;66961;51.482;9.160;2023-08-07T12:42:43;4.73;;;1.80;;
77769;SDS011;66961;51.482;9.160;2023-08-07T12:45:09;6.27;;;2.17;;
77769;SDS011;66961;51.482;9.160;2023-08-07T12:47:34;6.57;;;2.60;;
77769;SDS011;66961;51.482;9.160;2023-08-07T12:50:00;7.53;;;2.57;;
77769;SDS011;66961;51.482;9.160;2023-08-07T12:52:25;4.87;;;2.57;;
77769;SDS011;66961;51.482;9.160;2023-08-07T12:54:50;8.03;;;2.30;;
77769;SDS011;66961;51.482;9.160;2023-08-07T12:57:15;7.53;;;2.50;;
77769;SDS011;66961;51.482;9.160;2023-08-07T12:59:41;10.50;;;2.93;;
77769;SDS011;66961;51.482;9.160;2023-08-07T13:02:06;5.93;;;2.23;;
77769;SDS011;66961;51.482;9.160;2023-08-07T13:04:31;5.83;;;2.40;;
77769;SDS011;66961;51.482;9.160;2023-08-07T13:06:56;6.67;;;2.27;;
77769;SDS011;66961;51.482;9.160;2023-08-07T13:09:22;5.13;;;1.90;;
77769;SDS011;66961;51.482;9.160;2023-08-07T13:11:47;7.43;;;2.13;;
77769;SDS011;66961;51.482;9.160;2023-08-07T13:14:12;5.50;;;2.57;;
77769;SDS011;66961;51.482;9.160;2023-08-07T13:16:37;6.47;;;2.10;;
77769;SDS011;66961;51.482;9.160;2023-08-07T13:19:03;3.87;;;1.80;;
77769;SDS011;66961;51.482;9.160;2023-08-07T13:21:28;6.50;;;2.20;;
77769;SDS011;66961;51.482;9.160;2023-08-07T13:23:53;4.77;;;1.73;;
77769;SDS011;66961;51.482;9.160;2023-08-07T13:26:18;4.63;;;1.60;;
77769;SDS011;66961;51.482;9.160;2023-08-07T13:28:44;5.13;;;2.30;;
77769;SDS011;66961;51.482;9.160;2023-08-07T13:31:09;3.63;;;1.40;;
77769;SDS011;66961;51.482;9.160;2023-08-07T13:33:34;5.33;;;1.73;;
77769;SDS011;66961;51.482;9.160;2023-08-07T13:35:59;6.18;;;2.10;;
77769;SDS011;66961;51.482;9.160;2023-08-07T13:38:25;6.77;;;1.87;;
77769;SDS011;66961;51.482;9.160;2023-08-07T13:40:50;5.60;;;1.70;;
77769;SDS011;66961;51.482;9.160;2023-08-07T13:43:15;4.00;;;1.80;;
77769;SDS011;66961;51.482;9.160;2023-08-07T13:45:40;3.87;;;1.80;;
77769;SDS011;66961;51.482;9.160;2023-08-07T13:48:06;3.20;;;1.40;;
77769;SDS011;66961;51.482;9.160;2023-08-07T13:50:31;4.57;;;1.33;;
77769;SDS011;66961;51.482;9.160;2023-08-07T13:52:56;6.78;;;1.70;;
77769;SDS011;66961;51.482;9.160;2023-08-07T13:55:21;4.27;;;1.63;;
77769;SDS011;66961;51.482;9.160;2023-08-07T13:57:47;4.00;;;1.50;;
77769;SDS011;66961;51.482;9.160;2023-08-07T14:00:13;4.93;;;1.70;;
77769;SDS011;66961;51.482;9.160;2023-08-07T14:02:38;4.18;;;1.50;;
77769;SDS011;66961;51.482;9.160;2023-08-07T14:05:03;7.13;;;1.40;;
77769;SDS011;66961;51.482;9.160;2023-08-07T14:07:29;3.83;;;1.40;;
77769;SDS011;66961;51.482;9.160;2023-08-07T14:09:55;4.97;;;1.50;;
77769;SDS011;66961;51.482;9.160;2023-08-07T14:12:20;4.30;;;1.67;;
77769;SDS011;66961;51.482;9.160;2023-08-07T14:14:45;4.90;;;1.50;;
77769;SDS011;66961;51.482;9.160;2023-08-07T14:17:10;3.93;;;1.77;;
77769;SDS011;66961;51.482;9.160;2023-08-07T14:19:36;5.10;;;2.23;;
77769;SDS011;66961;51.482;9.160;2023-08-07T14:22:01;7.30;;;1.80;;
77769;SDS011;66961;51.482;9.160;2023-08-07T14:24:26;6.50;;;1.70;;
77769;SDS011;66961;51.482;9.160;2023-08-07T14:26:51;4.65;;;1.63;;
77769;SDS011;66961;51.482;9.160;2023-08-07T14:29:17;2.53;;;1.20;;
77769;SDS011;66961;51.482;9.160;2023-08-07T14:31:42;4.10;;;1.30;;
77769;SDS011;66961;51.482;9.160;2023-08-07T14:34:07;3.67;;;1.52;;
77769;SDS011;66961;51.482;9.160;2023-08-07T14:36:33;4.63;;;1.70;;
77769;SDS011;66961;51.482;9.160;2023-08-07T14:38:58;4.68;;;1.70;;
77769;SDS011;66961;51.482;9.160;2023-08-07T14:41:23;4.97;;;1.67;;
77769;SDS011;66961;51.482;9.160;2023-08-07T14:43:49;3.10;;;1.70;;
77769;SDS011;66961;51.482;9.160;2023-08-07T14:46:15;4.23;;;1.50;;
77769;SDS011;66961;51.482;9.160;2023-08-07T14:48:41;3.25;;;1.25;;
77769;SDS011;66961;51.482;9.160;2023-08-07T14:51:06;5.57;;;1.77;;